Time;durP1;ratioP1;P1;durP2;ratioP2;P2;SDS_P1;SDS_P2;PMS_P1;PMS_P2;Temp;Humidity;BMP_temperature;BMP_pressure;BME280_temperature;BME280_humidity;BME280_pressure;Samples;Min_cycle;Max_cycle;Signal;HPM_P1;HPM_P2
2022/05/06 00:01:27;;;;;;;;;;;;;;;14.42;100.00;100730.28;5053918;28;20035;-62
2022/05/06 00:03:53;;;;;;;;;;;;;;;14.37;100.00;100726.91;5054345;28;20299;-62
2022/05/06 00:06:18;;;;;;;;;;;;;;;14.33;100.00;100723.47;5053413;28;19917;-62
2022/05/06 00:08:43;;;;;;;;;;;;;;;14.36;100.00;100722.50;5054108;28;19912;-61
2022/05/06 00:11:09;;;;;;;;;;;;;;;14.35;100.00;100723.41;5052994;28;19916;-62
2022/05/06 00:13:35;;;;;;;;;;;;;;;14.35;100.00;100732.31;5053599;28;19913;-62
2022/05/06 00:16:03;;;;;;;;;;;;;;;14.33;100.00;100719.94;5053504;28;19913;-62
2022/05/06 00:18:29;;;;;;;;;;;;;;;14.29;100.00;100724.53;5073540;28;20402;-61
2022/05/06 00:20:55;;;;;;;;;;;;;;;14.28;100.00;100717.41;5073359;28;19919;-61
2022/05/06 00:23:20;;;;;;;;;;;;;;;14.27;100.00;100717.47;5073753;28;20079;-62
2022/05/06 00:25:46;;;;;;;;;;;;;;;14.25;100.00;100719.31;5073345;28;19916;-62
2022/05/06 00:28:12;;;;;;;;;;;;;;;14.23;100.00;100716.66;5065711;28;19912;-62
2022/05/06 00:30:37;;;;;;;;;;;;;;;14.21;100.00;100715.00;5053051;28;19921;-62
2022/05/06 00:33:02;;;;;;;;;;;;;;;14.15;100.00;100717.91;5053475;28;19924;-62
2022/05/06 00:35:28;;;;;;;;;;;;;;;14.13;100.00;100715.28;5053594;28;19961;-62
2022/05/06 00:37:54;;;;;;;;;;;;;;;14.15;100.00;100707.19;5053018;28;19912;-62
2022/05/06 00:40:19;;;;;;;;;;;;;;;14.12;100.00;100709.94;5053043;28;19932;-62
2022/05/06 00:42:45;;;;;;;;;;;;;;;14.09;100.00;100718.97;5051788;28;19987;-62
2022/05/06 00:45:10;;;;;;;;;;;;;;;14.12;100.00;100708.16;5052998;28;20015;-62
2022/05/06 00:47:35;;;;;;;;;;;;;;;14.09;100.00;100708.28;5053093;28;20260;-62
2022/05/06 00:50:01;;;;;;;;;;;;;;;14.08;100.00;100708.34;5052458;28;19917;-62
2022/05/06 00:52:27;;;;;;;;;;;;;;;14.11;100.00;100708.22;5053102;28;20124;-62
2022/05/06 00:54:53;;;;;;;;;;;;;;;14.11;100.00;100706.44;5053078;28;20008;-62
2022/05/06 00:57:18;;;;;;;;;;;;;;;14.11;100.00;100706.44;5052785;28;19912;-62
2022/05/06 01:02:27;;;;;;;;;;;;;;;14.06;100.00;100710.19;5053145;28;19919;-62
2022/05/06 01:04:53;;;;;;;;;;;;;;;14.09;100.00;100699.38;5053111;28;19916;-62
2022/05/06 01:07:19;;;;;;;;;;;;;;;14.07;100.00;100695.88;5052572;28;19912;-62
2022/05/06 01:09:44;;;;;;;;;;;;;;;14.11;100.00;100705.53;5053171;28;19913;-63
2022/05/06 01:12:10;;;;;;;;;;;;;;;14.13;100.00;100701.03;5052199;28;19936;-62
2022/05/06 01:14:35;;;;;;;;;;;;;;;14.12;100.00;100700.13;5052788;28;20279;-62
2022/05/06 01:17:04;;;;;;;;;;;;;;;14.10;100.00;100706.50;5059677;28;19912;-62
2022/05/06 01:19:29;;;;;;;;;;;;;;;14.12;100.00;100701.94;5072834;28;19919;-62
2022/05/06 01:21:55;;;;;;;;;;;;;;;14.10;100.00;100698.47;5072314;28;19912;-62
2022/05/06 01:24:21;;;;;;;;;;;;;;;14.09;100.00;100702.03;5072827;28;19920;-62
2022/05/06 01:26:56;;;;;;;;;;;;;;;14.06;100.00;100699.47;5071760;28;21438;-62
2022/05/06 01:29:22;;;;;;;;;;;;;;;14.07;100.00;100695.88;5058484;28;20376;-62
2022/05/06 01:31:50;;;;;;;;;;;;;;;14.06;100.00;100700.38;5052324;28;19921;-63
2022/05/06 01:34:16;;;;;;;;;;;;;;;14.08;100.00;100702.97;5051010;28;19939;-61
2022/05/06 01:36:43;;;;;;;;;;;;;;;14.10;100.00;100698.47;5052458;28;19917;-61
2022/05/06 01:39:09;;;;;;;;;;;;;;;14.18;100.00;100699.06;5052479;28;19913;-61
2022/05/06 01:41:37;;;;;;;;;;;;;;;14.15;100.00;100702.69;5052360;28;19919;-61
2022/05/06 01:44:07;;;;;;;;;;;;;;;14.09;100.00;100699.38;5052296;28;19916;-61
2022/05/06 01:46:35;;;;;;;;;;;;;;;14.05;100.00;100703.09;5052196;28;19924;-61
2022/05/06 01:49:02;;;;;;;;;;;;;;;14.06;100.00;100703.03;5052207;28;19952;-61
2022/05/06 01:51:27;;;;;;;;;;;;;;;14.01;100.00;100696.09;5052278;28;19912;-61
2022/05/06 01:53:52;;;;;;;;;;;;;;;13.96;100.00;100690.91;5052610;28;19917;-61
2022/05/06 01:56:19;;;;;;;;;;;;;;;13.96;100.00;100695.38;5052123;28;19913;-61
2022/05/06 01:58:44;;;;;;;;;;;;;;;13.98;100.00;100688.19;5052288;28;19917;-61
2022/05/06 02:01:11;;;;;;;;;;;;;;;14.00;100.00;100689.00;5052292;28;19913;-61
2022/05/06 02:06:20;;;;;;;;;;;;;;;14.00;100.00;100689.88;5052132;28;20370;-62
2022/05/06 02:08:46;;;;;;;;;;;;;;;13.99;100.00;100693.47;5055511;28;19912;-62
2022/05/06 02:11:11;;;;;;;;;;;;;;;14.00;100.00;100689.88;5055946;28;19917;-62
2022/05/06 02:13:37;;;;;;;;;;;;;;;13.98;100.00;100698.88;5056147;28;19913;-62
2022/05/06 02:16:03;;;;;;;;;;;;;;;13.94;100.00;100702.59;5055011;28;19974;-62
2022/05/06 02:18:28;;;;;;;;;;;;;;;13.92;100.00;100693.75;5075639;28;19916;-62
2022/05/06 02:20:57;;;;;;;;;;;;;;;13.90;100.00;100688.47;5073612;28;20387;-62
2022/05/06 02:23:23;;;;;;;;;;;;;;;13.93;100.00;100688.34;5054508;28;20398;-62
2022/05/06 02:25:48;;;;;;;;;;;;;;;13.97;100.00;100684.63;5055915;28;19955;-62
2022/05/06 02:28:14;;;;;;;;;;;;;;;13.96;100.00;100690.91;5055421;28;20007;-62
2022/05/06 02:33:24;;;;;;;;;;;;;;;13.90;100.00;100684.91;5055683;28;20023;-62
2022/05/06 02:35:50;;;;;;;;;;;;;;;13.94;100.00;100683.88;5055726;28;19944;-62
2022/05/06 02:38:15;;;;;;;;;;;;;;;13.91;100.00;100684.88;5055604;28;19913;-62
2022/05/06 02:40:40;;;;;;;;;;;;;;;13.87;100.00;100699.25;5055938;28;19920;-62
2022/05/06 02:43:06;;;;;;;;;;;;;;;13.87;100.00;100693.91;5055320;28;20364;-62
2022/05/06 02:45:32;;;;;;;;;;;;;;;13.90;100.00;100692.94;5055331;28;19917;-62
2022/05/06 02:47:57;;;;;;;;;;;;;;;13.91;100.00;100692.00;5055452;28;19913;-62
2022/05/06 02:50:23;;;;;;;;;;;;;;;13.88;100.00;100694.78;5055495;28;19917;-62
2022/05/06 02:52:48;;;;;;;;;;;;;;;13.87;100.00;100693.91;5055192;28;19913;-62
2022/05/06 02:55:14;;;;;;;;;;;;;;;13.88;100.00;100684.09;5055042;28;19913;-62
2022/05/06 02:57:40;;;;;;;;;;;;;;;13.84;100.00;100691.34;5054965;28;20291;-62
2022/05/06 03:00:05;;;;;;;;;;;;;;;13.83;100.00;100691.41;5055350;28;19981;-62
2022/05/06 03:02:31;;;;;;;;;;;;;;;13.83;100.00;100686.06;5055234;28;19934;-62
2022/05/06 03:04:56;;;;;;;;;;;;;;;13.83;100.00;100686.94;5053947;28;19916;-62
2022/05/06 03:07:22;;;;;;;;;;;;;;;13.81;100.00;100688.78;5054791;28;19913;-62
2022/05/06 03:09:47;;;;;;;;;;;;;;;13.78;100.00;100690.69;5054754;28;19912;-62
2022/05/06 03:12:13;;;;;;;;;;;;;;;13.79;100.00;100687.09;5054883;28;20334;-62
2022/05/06 03:14:38;;;;;;;;;;;;;;;13.81;100.00;100690.56;5055257;28;19916;-62
2022/05/06 03:17:04;;;;;;;;;;;;;;;13.79;100.00;100679.94;5057134;28;19924;-62
2022/05/06 03:19:29;;;;;;;;;;;;;;;13.77;100.00;100688.94;5053660;28;19915;-62
2022/05/06 03:21:54;;;;;;;;;;;;;;;13.74;100.00;100683.72;5054761;28;19927;-62
2022/05/06 03:24:20;;;;;;;;;;;;;;;13.67;100.00;100684.84;5053883;28;20003;-62
2022/05/06 03:26:45;;;;;;;;;;;;;;;13.63;100.00;100683.19;5054304;28;19913;-62
2022/05/06 03:29:11;;;;;;;;;;;;;;;13.63;100.00;100685.88;5054463;28;20348;-62
2022/05/06 03:31:36;;;;;;;;;;;;;;;13.60;100.00;100683.31;5054623;28;19913;-62
2022/05/06 03:34:02;;;;;;;;;;;;;;;13.60;100.00;100681.50;5054702;28;19920;-62
2022/05/06 03:36:28;;;;;;;;;;;;;;;13.56;100.00;100684.34;5054664;28;19920;-62
2022/05/06 03:38:53;;;;;;;;;;;;;;;13.55;100.00;100687.94;5054593;28;20283;-62
2022/05/06 03:41:18;;;;;;;;;;;;;;;13.54;100.00;100683.53;5054281;28;19919;-62
2022/05/06 03:43:44;;;;;;;;;;;;;;;13.54;100.00;100688.88;5054303;28;19920;-62
2022/05/06 03:46:09;;;;;;;;;;;;;;;13.51;100.00;100694.31;5054362;28;19917;-63
2022/05/06 03:48:35;;;;;;;;;;;;;;;13.43;100.00;100685.66;5054347;28;19931;-63
2022/05/06 03:53:44;;;;;;;;;;;;;;;13.44;100.00;100695.44;5053275;28;19920;-63
2022/05/06 03:56:10;;;;;;;;;;;;;;;13.37;100.00;100696.56;5052071;28;19921;-63
2022/05/06 03:58:35;;;;;;;;;;;;;;;13.37;100.00;100696.56;5052662;28;19990;-63
2022/05/06 04:01:00;;;;;;;;;;;;;;;13.35;100.00;100698.41;5052908;28;19948;-63
2022/05/06 04:03:25;;;;;;;;;;;;;;;13.32;100.00;100701.19;5052598;28;19975;-63
2022/05/06 04:05:52;;;;;;;;;;;;;;;13.31;100.00;100699.44;5052392;28;19923;-63
2022/05/06 04:08:18;;;;;;;;;;;;;;;13.33;100.00;100705.63;5053389;28;19979;-62
2022/05/06 04:10:44;;;;;;;;;;;;;;;13.34;100.00;100702.00;5053676;28;19921;-62
2022/05/06 04:13:09;;;;;;;;;;;;;;;13.36;100.00;100702.84;5053816;28;19919;-62
2022/05/06 04:15:34;;;;;;;;;;;;;;;13.43;100.00;100699.03;5053819;28;19912;-62
2022/05/06 04:18:01;;;;;;;;;;;;;;;13.40;100.00;100702.69;5069028;28;19912;-62
2022/05/06 04:25:55;;;;;;;;;;;;;;;13.44;100.00;100709.69;5039604;28;19970;-63
2022/05/06 04:28:21;;;;;;;;;;;;;;;13.44;100.00;100714.16;5053452;28;20439;-63
2022/05/06 04:30:46;;;;;;;;;;;;;;;13.46;100.00;100718.50;5052867;28;19927;-63
2022/05/06 04:33:11;;;;;;;;;;;;;;;13.47;100.00;100720.28;5053441;28;19912;-63
2022/05/06 04:35:36;;;;;;;;;;;;;;;13.46;100.00;100717.66;5053294;28;20062;-63
2022/05/06 04:38:02;;;;;;;;;;;;;;;13.45;100.00;100722.13;5053242;28;20577;-63
2022/05/06 04:40:27;;;;;;;;;;;;;;;13.49;100.00;100714.88;5053139;28;19920;-63
2022/05/06 04:42:52;;;;;;;;;;;;;;;13.53;100.00;100719.19;5053157;28;19931;-63
2022/05/06 04:45:18;;;;;;;;;;;;;;;13.57;100.00;100726.19;5053108;28;19917;-63
2022/05/06 04:47:43;;;;;;;;;;;;;;;13.56;100.00;100724.44;5053226;28;19928;-63
2022/05/06 04:50:09;;;;;;;;;;;;;;;13.51;100.00;100726.41;5053449;28;20031;-63
2022/05/06 04:52:34;;;;;;;;;;;;;;;13.51;100.00;100731.75;5053395;28;19924;-63
2022/05/06 04:54:59;;;;;;;;;;;;;;;13.49;100.00;100738.94;5053383;28;20007;-63
2022/05/06 04:57:24;;;;;;;;;;;;;;;13.47;100.00;100736.31;5053340;28;19919;-62
2022/05/06 04:59:50;;;;;;;;;;;;;;;13.49;100.00;100736.25;5051825;28;19919;-63
2022/05/06 05:02:16;;;;;;;;;;;;;;;13.49;100.00;100738.94;5053220;28;19962;-63
2022/05/06 05:04:42;;;;;;;;;;;;;;;13.49;100.00;100738.94;5053052;28;20004;-62
2022/05/06 05:07:07;;;;;;;;;;;;;;;13.51;100.00;100737.94;5052711;28;19995;-62
2022/05/06 05:09:33;;;;;;;;;;;;;;;13.58;100.00;100754.66;5053127;28;19917;-62
2022/05/06 05:11:58;;;;;;;;;;;;;;;13.61;100.00;100749.19;5053069;28;19991;-62
2022/05/06 05:14:23;;;;;;;;;;;;;;;13.62;100.00;100750.97;5052932;28;19924;-63
2022/05/06 05:16:50;;;;;;;;;;;;;;;13.65;100.00;100753.53;5058493;28;20555;-62
2022/05/06 05:19:15;;;;;;;;;;;;;;;13.67;100.00;100751.69;5071521;28;19924;-65
2022/05/06 05:21:41;;;;;;;;;;;;;;;13.72;100.00;100752.41;5072796;28;20053;-63
2022/05/06 05:24:07;;;;;;;;;;;;;;;13.75;100.00;100746.94;5072848;28;19916;-63
2022/05/06 05:26:32;;;;;;;;;;;;;;;13.76;100.00;100748.69;5072634;28;19966;-62
2022/05/06 05:28:57;;;;;;;;;;;;;;;13.81;100.00;100752.06;5061402;28;19925;-63
2022/05/06 05:31:22;;;;;;;;;;;;;;;13.81;100.00;100746.72;5052391;28;20010;-62
2022/05/06 05:33:49;;;;;;;;;;;;;;;13.82;100.00;100749.34;5052343;28;19966;-63
2022/05/06 05:36:14;;;;;;;;;;;;;;;13.87;100.00;100757.22;5052646;28;19959;-63
2022/05/06 05:38:39;;;;;;;;;;;;;;;13.92;100.00;100755.28;5052432;28;19955;-63
2022/05/06 05:41:07;;;;;;;;;;;;;;;13.91;100.00;100756.19;5052248;28;19920;-63
2022/05/06 05:49:02;;;;;;;;;;;;;;;14.04;100.00;100746.81;5051905;28;19919;-61
2022/05/06 05:51:27;;;;;;;;;;;;;;;13.99;100.00;100754.13;5052014;28;19917;-61
2022/05/06 05:53:53;;;;;;;;;;;;;;;13.90;100.00;100754.44;5052233;28;20015;-62
2022/05/06 05:56:18;;;;;;;;;;;;;;;13.99;100.00;100748.78;5052111;28;19954;-61
2022/05/06 05:58:44;;;;;;;;;;;;;;;14.03;100.00;100740.59;5051955;28;19984;-62
2022/05/06 06:01:10;;;;;;;;;;;;;;;14.05;100.00;100741.41;5051345;28;19924;-62
2022/05/06 06:03:35;;;;;;;;;;;;;;;14.15;100.00;100741.97;5051992;28;19917;-62
2022/05/06 06:06:00;;;;;;;;;;;;;;;14.10;100.00;100750.13;5047923;28;19924;-62
2022/05/06 06:08:26;;;;;;;;;;;;;;;14.05;100.00;100757.44;5049980;28;20000;-62
2022/05/06 06:10:53;;;;;;;;;;;;;;;14.09;100.00;100748.41;5052010;28;19913;-62
2022/05/06 06:13:18;;;;;;;;;;;;;;;14.13;100.00;100751.84;5059901;28;20429;-63
2022/05/06 06:15:43;;;;;;;;;;;;;;;14.15;100.00;100755.34;5061440;28;19969;-62
2022/05/06 06:18:09;;;;;;;;;;;;;;;14.17;100.00;100745.44;5048707;28;19913;-62
2022/05/06 06:20:34;;;;;;;;;;;;;;;14.10;100.00;100763.50;5048994;28;19944;-62
2022/05/06 06:22:59;;;;;;;;;;;;;;;14.10;100.00;100757.31;5050039;28;19920;-62
2022/05/06 06:25:25;;;;;;;;;;;;;;;14.18;100.00;100753.41;5050309;28;19924;-62
2022/05/06 06:27:50;;;;;;;;;;;;;;;14.26;100.00;100751.41;5051456;28;19913;-62
2022/05/06 06:30:15;;;;;;;;;;;;;;;14.28;100.00;100754.03;5048943;28;19948;-62
2022/05/06 06:32:41;;;;;;;;;;;;;;;14.34;100.00;100761.81;5051133;28;19923;-62
2022/05/06 06:35:07;;;;;;;;;;;;;;;14.31;100.00;100761.94;5050481;28;20286;-62
2022/05/06 06:37:32;;;;;;;;;;;;;;;14.35;100.00;100771.56;5049752;28;20392;-62
2022/05/06 06:39:57;;;;;;;;;;;;;;;14.44;100.00;100766.78;5049377;28;19913;-62
2022/05/06 06:42:23;;;;;;;;;;;;;;;14.54;100.00;100767.31;5061676;28;19920;-62
2022/05/06 06:44:49;;;;;;;;;;;;;;;14.61;100.00;100766.19;5069932;28;19920;-62
2022/05/06 06:47:14;;;;;;;;;;;;;;;14.72;100.00;100772.00;5058384;28;19924;-62
2022/05/06 06:49:39;;;;;;;;;;;;;;;14.73;100.00;100768.38;5030131;28;19923;-62
2022/05/06 06:52:05;;;;;;;;;;;;;;;14.84;100.00;100771.53;5049528;28;20011;-62
2022/05/06 06:54:30;;;;;;;;;;;;;;;14.94;100.00;100767.56;5072763;28;19962;-62
2022/05/06 06:56:56;;;;;;;;;;;;;;;14.92;100.00;100769.44;5066754;28;20432;-62
2022/05/06 06:59:21;;;;;;;;;;;;;;;14.94;100.00;100766.72;5052844;28;19912;-62
2022/05/06 07:01:46;;;;;;;;;;;;;;;14.94;100.00;100762.19;5060164;28;20275;-62
2022/05/06 07:04:12;;;;;;;;;;;;;;;14.89;100.00;100763.31;5073573;28;20442;-62
2022/05/06 07:12:05;;;;;;;;;;;;;;;14.94;100.00;100772.06;5054433;28;19924;-62
2022/05/06 07:14:30;;;;;;;;;;;;;;;14.99;100.00;100773.63;5073235;28;19916;-62
2022/05/06 07:16:56;;;;;;;;;;;;;;;15.00;100.00;100774.50;5071454;28;20402;-62
2022/05/06 07:19:22;;;;;;;;;;;;;;;15.08;100.00;100772.38;5052367;28;19943;-62
2022/05/06 07:21:49;;;;;;;;;;;;;;;15.11;100.00;100773.16;5053229;28;19955;-62
2022/05/06 07:24:15;;;;;;;;;;;;;;;15.15;100.00;100773.91;5053098;28;19978;-62
2022/05/06 07:26:40;;;;;;;;;;;;;;;15.14;100.00;100775.69;5053280;28;20352;-62
2022/05/06 07:29:06;;;;;;;;;;;;;;;15.20;100.00;100777.28;5059214;28;19945;-62
2022/05/06 07:31:31;;;;;;;;;;;;;;;15.20;100.00;100775.47;5068871;28;19954;-62
2022/05/06 07:33:56;;;;;;;;;;;;;;;15.26;100.00;100775.22;5059390;28;20375;-62
2022/05/06 07:36:23;;;;;;;;;;;;;;;15.34;100.00;100780.28;5072881;28;19919;-62
2022/05/06 07:38:49;;;;;;;;;;;;;;;15.42;100.00;100772.88;5054111;28;19943;-62
2022/05/06 07:41:14;;;;;;;;;;;;;;;15.47;100.00;100779.75;5059482;28;19917;-62
2022/05/06 07:43:39;;;;;;;;;;;;;;;15.48;99.80;100778.84;5054156;28;19917;-62
2022/05/06 07:46:04;;;;;;;;;;;;;;;15.65;100.00;100778.13;5052621;28;19913;-62
2022/05/06 07:48:30;;;;;;;;;;;;;;;15.73;100.00;100773.34;5053001;28;19919;-62
2022/05/06 07:50:55;;;;;;;;;;;;;;;15.83;99.46;100767.50;5053929;28;19920;-62
2022/05/06 07:53:20;;;;;;;;;;;;;;;15.95;96.72;100776.00;5053399;28;19928;-62
2022/05/06 07:55:46;;;;;;;;;;;;;;;15.89;94.72;100779.81;5053248;28;20470;-62
2022/05/06 07:58:12;;;;;;;;;;;;;;;16.01;94.14;100771.25;5053764;28;19917;-62
2022/05/06 08:00:37;;;;;;;;;;;;;;;15.98;91.98;100771.34;5054220;28;20005;-62
2022/05/06 08:05:47;;;;;;;;;;;;;;;16.05;90.55;100771.97;5053615;28;19966;-62
2022/05/06 08:08:13;;;;;;;;;;;;;;;16.01;92.22;100778.41;5054190;28;19999;-62
2022/05/06 08:10:39;;;;;;;;;;;;;;;15.96;90.67;100778.63;5053235;28;19913;-62
2022/05/06 08:13:05;;;;;;;;;;;;;;;15.82;91.67;100781.88;5053937;28;19913;-62
2022/05/06 08:15:30;;;;;;;;;;;;;;;15.89;91.61;100787.88;5054611;28;20437;-63
2022/05/06 08:17:55;;;;;;;;;;;;;;;15.86;90.63;100787.13;5061078;28;19921;-63
2022/05/06 08:20:22;;;;;;;;;;;;;;;16.07;92.25;100788.88;5053537;28;19916;-63
2022/05/06 08:22:47;;;;;;;;;;;;;;;16.12;90.15;100790.44;5053525;28;19912;-63
2022/05/06 08:25:12;;;;;;;;;;;;;;;16.27;91.42;100805.91;5053199;28;20295;-61
2022/05/06 08:27:45;;;;;;;;;;;;;;;16.43;90.48;100788.16;5053949;28;19950;-62
2022/05/06 08:30:12;;;;;;;;;;;;;;;16.57;91.36;100788.44;5033899;28;19924;-62
2022/05/06 08:32:38;;;;;;;;;;;;;;;16.49;88.51;100781.69;5033451;28;20055;-62
2022/05/06 08:35:05;;;;;;;;;;;;;;;16.65;87.72;100796.19;5045655;28;20434;-62
2022/05/06 08:37:39;;;;;;;;;;;;;;;16.73;88.89;100794.00;5053469;28;20290;-62
2022/05/06 08:40:04;;;;;;;;;;;;;;;16.93;90.21;100780.53;5053516;28;19916;-62
2022/05/06 08:42:30;;;;;;;;;;;;;;;17.06;88.42;100782.59;5052645;28;19916;-62
2022/05/06 08:53:08;;;;;;;;;;;;;;;17.34;81.11;100792.91;5052988;28;19919;-61
2022/05/06 08:55:33;;;;;;;;;;;;;;;17.19;79.51;100787.38;5052375;28;19920;-61
2022/05/06 08:57:59;;;;;;;;;;;;;;;17.19;79.37;100787.38;5053017;28;20307;-61
2022/05/06 09:00:25;;;;;;;;;;;;;;;17.20;80.11;100794.50;5053036;28;19973;-61
2022/05/06 09:02:51;;;;;;;;;;;;;;;17.30;81.07;100791.28;5051765;28;19956;-61
2022/05/06 09:05:17;;;;;;;;;;;;;;;17.42;80.30;100804.16;5052478;28;19917;-62
2022/05/06 09:07:53;;;;;;;;;;;;;;;17.56;78.00;100803.53;5052559;28;19954;-61
2022/05/06 09:10:18;;;;;;;;;;;;;;;17.75;79.89;100805.25;5052553;28;19926;-62
2022/05/06 09:12:45;;;;;;;;;;;;;;;17.94;78.54;100803.38;5052701;28;20291;-61
2022/05/06 09:17:56;;;;;;;;;;;;;;;18.32;76.84;100798.72;5066382;28;19958;-61
2022/05/06 09:20:22;;;;;;;;;;;;;;;18.44;72.39;100805.34;5072854;28;19935;-61
2022/05/06 09:22:50;;;;;;;;;;;;;;;18.45;72.60;100799.88;5070656;28;20321;-61
2022/05/06 09:25:34;;;;;;;;;;;;;;;18.75;75.06;100802.75;5070902;28;19916;-61
2022/05/06 09:28:00;;;;;;;;;;;;;;;18.66;70.27;100804.16;5067471;28;19974;-61
2022/05/06 09:30:25;;;;;;;;;;;;;;;18.70;69.66;100797.63;5049916;28;19924;-61
2022/05/06 09:32:50;;;;;;;;;;;;;;;18.71;71.80;100801.19;5049133;28;19916;-61
2022/05/06 09:35:15;;;;;;;;;;;;;;;18.82;69.71;100806.88;5049243;28;20371;-61
2022/05/06 09:37:42;;;;;;;;;;;;;;;18.81;68.12;100810.53;5050300;28;19912;-61
2022/05/06 09:40:09;;;;;;;;;;;;;;;19.03;69.87;100803.00;5051746;28;19955;-61
2022/05/06 09:42:39;;;;;;;;;;;;;;;19.26;64.99;100810.72;5052224;28;19923;-62
2022/05/06 09:45:05;;;;;;;;;;;;;;;19.42;65.93;100807.09;5051990;28;19956;-62
2022/05/06 09:47:32;;;;;;;;;;;;;;;19.71;64.84;100805.47;5052377;28;20665;-61
2022/05/06 09:49:57;;;;;;;;;;;;;;;19.97;62.37;100812.03;5052055;28;19913;-61
2022/05/06 09:52:22;;;;;;;;;;;;;;;20.05;62.85;100816.03;5052083;28;20432;-62
2022/05/06 09:54:48;;;;;;;;;;;;;;;20.24;62.34;100816.75;5052222;28;19948;-62
2022/05/06 09:57:14;;;;;;;;;;;;;;;20.72;61.37;100811.03;5051829;28;20391;-62
2022/05/06 09:59:40;;;;;;;;;;;;;;;21.43;61.08;100805.69;5052086;28;20357;-61
2022/05/06 10:02:06;;;;;;;;;;;;;;;21.69;60.64;100802.16;5051854;28;20011;-61
2022/05/06 10:04:32;;;;;;;;;;;;;;;22.14;58.65;100804.53;5052287;28;20019;-62
2022/05/06 10:06:59;;;;;;;;;;;;;;;22.65;54.71;100800.97;5051994;28;20373;-62
2022/05/06 10:09:25;;;;;;;;;;;;;;;22.94;53.60;100816.09;5051952;28;19913;-62
2022/05/06 10:11:51;;;;;;;;;;;;;;;23.17;51.48;100799.03;5051851;28;20395;-62
2022/05/06 10:14:17;;;;;;;;;;;;;;;23.45;53.21;100811.50;5051059;28;20542;-62
2022/05/06 10:16:42;;;;;;;;;;;;;;;23.56;53.03;100805.31;5049886;28;19917;-63
2022/05/06 10:19:27;;;;;;;;;;;;;;;24.00;52.01;100811.03;5050606;28;19943;-62
2022/05/06 10:21:53;;;;;;;;;;;;;;;24.22;51.28;100806.56;5050542;28;20392;-62
2022/05/06 10:24:20;;;;;;;;;;;;;;;24.60;52.83;100806.31;5050357;28;19927;-62
2022/05/06 10:26:46;;;;;;;;;;;;;;;24.92;49.49;100796.53;5050138;28;20026;-62
2022/05/06 10:32:43;;;;;;;;;;;;;;;25.47;51.06;100803.91;5050079;28;19924;-62
2022/05/06 10:35:12;;;;;;;;;;;;;;;25.90;46.54;100797.50;5053797;28;19917;-62
2022/05/06 10:37:47;;;;;;;;;;;;;;;26.07;46.21;100800.69;5054925;28;20355;-62
2022/05/06 10:40:21;;;;;;;;;;;;;;;25.80;44.61;100801.97;5055882;28;19912;-62
2022/05/06 10:42:47;;;;;;;;;;;;;;;25.68;43.85;100793.97;5054968;28;19983;-62
2022/05/06 10:45:24;;;;;;;;;;;;;;;25.98;45.79;100800.44;5055360;28;19917;-62
2022/05/06 10:47:50;;;;;;;;;;;;;;;26.33;44.20;100783.84;5048433;28;19917;-60
2022/05/06 10:50:16;;;;;;;;;;;;;;;26.34;44.86;100790.19;5055800;28;19912;-61
2022/05/06 10:52:42;;;;;;;;;;;;;;;26.35;44.42;100791.91;5055414;28;19913;-61
2022/05/06 10:55:10;;;;;;;;;;;;;;;26.26;44.03;100793.53;5055476;28;20329;-61
2022/05/06 10:57:54;;;;;;;;;;;;;;;26.13;43.24;100787.41;5054776;28;19917;-60
2022/05/06 11:00:20;;;;;;;;;;;;;;;25.98;44.78;100784.06;5035178;28;20320;-60
2022/05/06 11:02:46;;;;;;;;;;;;;;;26.28;42.42;100775.19;5033551;28;19913;-60
2022/05/06 11:05:14;;;;;;;;;;;;;;;26.53;43.55;100780.28;5034747;28;19917;-61
2022/05/06 11:07:41;;;;;;;;;;;;;;;26.93;40.79;100783.16;5035150;28;20380;-61
2022/05/06 11:10:08;;;;;;;;;;;;;;;27.16;41.57;100784.72;5035384;28;19920;-62
2022/05/06 11:12:33;;;;;;;;;;;;;;;26.95;39.88;100782.00;5035694;28;20284;-62
2022/05/06 11:14:59;;;;;;;;;;;;;;;26.49;41.76;100775.22;5054827;28;19996;-62
2022/05/06 11:17:25;;;;;;;;;;;;;;;26.24;40.95;100783.78;5065340;28;19994;-61
2022/05/06 11:19:50;;;;;;;;;;;;;;;26.80;42.12;100777.03;5075055;28;20628;-61
2022/05/06 11:22:16;;;;;;;;;;;;;;;26.94;39.35;100776.69;5074850;28;19920;-61
2022/05/06 11:24:43;;;;;;;;;;;;;;;26.79;40.16;100769.84;5074799;28;20011;-61
2022/05/06 11:27:18;;;;;;;;;;;;;;;26.29;41.04;100765.16;5074915;28;19971;-61
2022/05/06 11:29:47;;;;;;;;;;;;;;;26.17;40.62;100768.91;5057368;28;20017;-61
2022/05/06 11:32:13;;;;;;;;;;;;;;;26.32;40.86;100764.88;5054494;28;19916;-61
2022/05/06 11:34:41;;;;;;;;;;;;;;;26.64;42.08;100768.44;5054716;28;20371;-61
2022/05/06 11:37:06;;;;;;;;;;;;;;;26.90;39.57;100770.63;5054486;28;19923;-63
2022/05/06 11:39:32;;;;;;;;;;;;;;;26.50;38.01;100758.72;5054019;28;19916;-60
2022/05/06 11:42:17;;;;;;;;;;;;;;;26.18;39.96;100762.47;5053828;28;19916;-60
2022/05/06 11:47:29;;;;;;;;;;;;;;;26.72;41.62;100753.13;5054189;28;20054;-61
2022/05/06 11:49:55;;;;;;;;;;;;;;;26.95;40.91;100753.84;5054069;28;19925;-61
2022/05/06 11:52:20;;;;;;;;;;;;;;;26.83;40.17;100746.75;5052376;28;20016;-61
2022/05/06 11:54:46;;;;;;;;;;;;;;;27.26;41.11;100750.09;5053533;28;19999;-61
2022/05/06 11:57:13;;;;;;;;;;;;;;;27.68;39.27;100756.28;5053592;28;19944;-61
2022/05/06 11:59:38;;;;;;;;;;;;;;;27.79;40.04;100745.25;5053968;28;19939;-61
2022/05/06 12:02:09;;;;;;;;;;;;;;;27.23;39.25;100747.66;5053636;28;20374;-61
2022/05/06 12:04:35;;;;;;;;;;;;;;;27.05;40.46;100739.22;5052077;28;19932;-61
2022/05/06 12:07:00;;;;;;;;;;;;;;;26.94;42.02;100741.19;5053874;28;20396;-61
2022/05/06 12:09:25;;;;;;;;;;;;;;;27.34;38.48;100744.84;5053835;28;19913;-61
2022/05/06 12:12:10;;;;;;;;;;;;;;;27.15;40.13;100742.00;5053790;28;19913;-61
2022/05/06 12:14:36;;;;;;;;;;;;;;;27.21;39.98;100742.31;5053650;28;20394;-61
2022/05/06 12:17:02;;;;;;;;;;;;;;;27.72;39.21;100739.47;5056695;28;19915;-61
2022/05/06 12:19:38;;;;;;;;;;;;;;;28.61;36.69;100730.16;5053488;28;19919;-61
2022/05/06 12:22:04;;;;;;;;;;;;;;;28.17;37.77;100723.44;5053806;28;20319;-62
2022/05/06 12:24:46;;;;;;;;;;;;;;;27.95;38.13;100735.50;5053525;28;19920;-62
2022/05/06 12:27:12;;;;;;;;;;;;;;;27.41;38.85;100728.75;5053715;28;19913;-62
2022/05/06 12:29:38;;;;;;;;;;;;;;;26.88;37.68;100730.81;5052908;28;19928;-62
2022/05/06 12:32:03;;;;;;;;;;;;;;;26.96;39.89;100725.53;5053493;28;20168;-62
2022/05/06 12:34:32;;;;;;;;;;;;;;;27.06;38.10;100734.63;5052936;28;19913;-62
2022/05/06 12:37:16;;;;;;;;;;;;;;;27.69;38.10;100734.31;5053330;28;19920;-62
2022/05/06 12:39:45;;;;;;;;;;;;;;;27.81;35.33;100730.41;5053433;28;19936;-62
2022/05/06 12:42:11;;;;;;;;;;;;;;;27.51;35.93;100726.91;5053383;28;20363;-62
2022/05/06 12:44:37;;;;;;;;;;;;;;;27.85;36.25;100726.41;5052753;28;20019;-62
2022/05/06 12:49:59;;;;;;;;;;;;;;;28.45;35.14;100714.31;5052969;28;20270;-62
2022/05/06 12:52:25;;;;;;;;;;;;;;;27.38;35.01;100727.16;5052052;28;19913;-62
2022/05/06 12:54:50;;;;;;;;;;;;;;;26.54;37.64;100721.94;5053208;28;19971;-62
2022/05/06 12:57:15;;;;;;;;;;;;;;;26.91;36.65;100725.06;5052913;28;19917;-62
2022/05/06 12:59:40;;;;;;;;;;;;;;;26.48;36.28;100717.03;5052764;28;20012;-62
2022/05/06 13:02:07;;;;;;;;;;;;;;;26.81;37.99;100725.03;5052937;28;20007;-63
2022/05/06 13:04:33;;;;;;;;;;;;;;;26.92;34.04;100716.75;5052832;28;19962;-62
2022/05/06 13:06:58;;;;;;;;;;;;;;;27.04;34.39;100714.78;5052759;28;19912;-62
2022/05/06 13:09:23;;;;;;;;;;;;;;;26.70;35.12;100710.59;5052659;28;19924;-62
2022/05/06 13:11:49;;;;;;;;;;;;;;;26.62;36.08;100711.22;5053076;28;19944;-62
2022/05/06 13:14:14;;;;;;;;;;;;;;;27.00;39.00;100713.34;5052730;28;19924;-63
2022/05/06 13:16:39;;;;;;;;;;;;;;;27.24;35.15;100716.59;5052452;28;19913;-63